createdAt,value
2023-03-23T16:02:38.066Z,14.50
2023-03-23T16:05:04.591Z,12.00
2023-03-23T16:07:31.523Z,10.50
2023-03-23T16:09:58.762Z,8.50
2023-03-23T16:12:25.142Z,6.00
2023-03-23T16:17:45.670Z,6.00
2023-03-23T16:20:12.117Z,5.33
2023-03-23T16:22:40.433Z,15.00
2023-03-23T16:25:06.875Z,17.00
2023-03-23T16:27:33.318Z,14.00
2023-03-23T16:32:46.698Z,10.00
2023-03-23T16:35:18.137Z,12.00
2023-03-23T16:37:45.404Z,14.67
2023-03-23T16:40:11.896Z,13.00
2023-03-23T16:42:39.218Z,11.50
2023-03-23T16:47:51.372Z,20.00
2023-03-23T16:50:18.689Z,15.00
2023-03-23T16:52:46.701Z,17.67
2023-03-23T16:55:14.102Z,20.00
2023-03-23T16:57:42.097Z,18.00
2023-03-23T17:03:04.048Z,13.50
2023-03-23T17:05:33.278Z,13.00
2023-03-23T17:07:59.717Z,11.00
2023-03-23T17:10:26.180Z,11.00
2023-03-23T17:12:52.583Z,10.00
2023-03-23T17:18:08.661Z,7.83
2023-03-23T17:20:35.067Z,11.00
2023-03-23T17:23:02.333Z,7.25
2023-03-23T17:25:28.665Z,7.00
2023-03-23T17:27:55.900Z,9.00
2023-03-23T17:33:16.848Z,9.75
2023-03-23T17:35:44.376Z,10.00
2023-03-23T17:38:10.946Z,8.00
2023-03-23T17:40:38.177Z,9.50
2023-03-23T17:43:04.524Z,6.67
2023-03-23T17:48:24.938Z,8.33
2023-03-23T17:50:51.283Z,6.67
2023-03-23T17:53:17.713Z,9.00
2023-03-23T17:55:45.393Z,7.67
2023-03-23T17:58:12.072Z,11.00
2023-03-23T18:03:23.467Z,10.00
2023-03-23T18:05:49.894Z,16.00
2023-03-23T18:08:16.397Z,21.50
2023-03-23T18:10:43.651Z,15.67
2023-03-23T18:13:10.911Z,13.00
2023-03-23T18:18:32.064Z,12.00
2023-03-23T18:20:59.285Z,11.33
2023-03-23T18:23:25.787Z,12.00
2023-03-23T18:25:52.245Z,21.50
2023-03-23T18:28:18.705Z,21.00
2023-03-23T18:33:39.777Z,14.00
2023-03-23T18:36:06.428Z,11.00
2023-03-23T18:38:33.190Z,14.00
2023-03-23T18:40:59.654Z,12.00
2023-03-23T18:43:26.134Z,10.50
2023-03-23T18:48:36.656Z,11.00
2023-03-23T18:51:03.100Z,11.00
2023-03-23T18:53:29.637Z,19.50
2023-03-23T18:55:56.066Z,17.00
2023-03-23T18:58:22.502Z,16.00
2023-03-23T19:00:49.758Z,15.00
2023-03-23T19:03:16.393Z,15.50
2023-03-23T19:05:44.056Z,15.33
2023-03-23T19:08:10.587Z,12.00
2023-03-23T19:10:38.920Z,13.20
2023-03-23T19:13:05.367Z,14.50
2023-03-23T19:15:32.786Z,25.50
2023-03-23T19:17:59.325Z,34.50
2023-03-23T19:20:57.286Z,30.50
2023-03-23T19:23:13.248Z,22.00
2023-03-23T19:25:40.590Z,19.33
2023-03-23T19:30:38.200Z,16.00
2023-03-23T19:33:04.735Z,14.50
2023-03-23T19:35:32.090Z,16.33
2023-03-23T19:37:58.522Z,19.00
2023-03-23T19:40:36.629Z,10.67
2023-03-23T19:43:14.896Z,13.33
2023-03-23T19:45:41.581Z,16.00
2023-03-23T19:48:08.300Z,28.50
2023-03-23T19:50:36.749Z,24.50
2023-03-23T19:53:03.292Z,20.50
2023-03-23T19:55:30.615Z,18.67
2023-03-23T19:57:57.069Z,15.50
2023-03-23T20:00:24.444Z,16.50
2023-03-23T20:02:51.569Z,30.50
2023-03-23T20:05:19.011Z,26.50
2023-03-23T20:07:51.717Z,26.00
2023-03-23T20:10:19.371Z,15.67
2023-03-23T20:12:47.733Z,13.00
2023-03-23T20:15:15.189Z,17.00
2023-03-23T20:17:41.643Z,14.50
2023-03-23T20:20:10.561Z,16.20
2023-03-23T20:22:37.196Z,11.00
2023-03-23T20:25:03.741Z,45.00
2023-03-23T20:27:30.213Z,38.50
2023-03-23T20:29:57.751Z,31.00
2023-03-23T20:32:24.232Z,25.50
2023-03-23T20:37:35.932Z,22.00
2023-03-23T20:40:03.214Z,18.00
2023-03-23T20:42:29.651Z,19.00
2023-03-23T20:44:56.128Z,16.50
2023-03-23T20:47:25.421Z,14.33
2023-03-23T20:52:35.821Z,12.50
2023-03-23T20:55:05.015Z,10.83
2023-03-23T20:57:32.292Z,10.25
2023-03-23T20:59:58.730Z,11.00
2023-03-23T21:02:25.168Z,11.00
2023-03-23T21:04:52.421Z,7.75
2023-03-23T21:07:18.768Z,7.33
2023-03-23T21:09:45.142Z,9.33
2023-03-23T21:12:11.474Z,7.00
2023-03-23T21:14:37.786Z,8.33
2023-03-23T21:17:05.016Z,10.50
2023-03-23T21:22:15.668Z,7.00
2023-03-23T21:24:42.092Z,9.00
2023-03-23T21:27:08.494Z,10.00
2023-03-23T21:29:35.694Z,13.33
2023-03-23T21:32:08.430Z,14.00
2023-03-23T21:37:20.470Z,28.50
2023-03-23T21:39:46.947Z,25.50
2023-03-23T21:42:13.395Z,20.50
2023-03-23T21:44:40.646Z,17.33
2023-03-23T21:47:07.883Z,15.00
2023-03-23T21:52:29.211Z,12.00
2023-03-23T21:54:55.635Z,12.00
2023-03-23T21:57:24.006Z,13.40
2023-03-23T21:59:53.165Z,11.33
2023-03-23T22:02:19.630Z,12.50
2023-03-23T22:07:41.210Z,11.00
2023-03-23T22:10:07.576Z,8.67
2023-03-23T22:12:33.958Z,8.67
2023-03-23T22:15:00.329Z,7.00
2023-03-23T22:17:26.659Z,8.67
2023-03-23T22:22:36.793Z,6.00
2023-03-23T22:25:03.141Z,6.67
2023-03-23T22:27:29.514Z,8.00
2023-03-23T22:29:56.709Z,7.25
2023-03-23T22:32:23.113Z,6.00
2023-03-23T22:37:33.224Z,8.00
2023-03-23T22:39:59.563Z,9.33
2023-03-23T22:42:25.957Z,7.33
2023-03-23T22:44:52.326Z,10.00
2023-03-23T22:47:18.677Z,8.67
2023-03-23T22:52:38.921Z,8.33
2023-03-23T22:55:05.344Z,8.33
2023-03-23T22:57:31.693Z,6.00
2023-03-23T22:59:58.089Z,5.00
2023-03-23T23:02:24.503Z,10.67
2023-03-23T23:04:50.895Z,7.67
2023-03-23T23:07:18.180Z,6.25
2023-03-23T23:09:44.551Z,7.00
2023-03-23T23:12:10.902Z,7.00
2023-03-23T23:14:37.247Z,8.33
2023-03-23T23:17:03.695Z,7.67
2023-03-23T23:19:30.047Z,8.67
2023-03-23T23:21:57.668Z,9.00
2023-03-23T23:24:28.222Z,7.67
2023-03-23T23:26:55.451Z,9.00
2023-03-23T23:29:21.800Z,5.00
2023-03-23T23:31:48.181Z,9.00
2023-03-23T23:34:14.532Z,8.00
2023-03-23T23:36:40.905Z,6.00
2023-03-23T23:39:07.248Z,7.00
2023-03-23T23:41:33.598Z,8.67
2023-03-23T23:44:00.041Z,9.67
2023-03-23T23:46:26.547Z,8.00
2023-03-23T23:48:52.901Z,6.00
2023-03-23T23:51:19.269Z,8.67
2023-03-23T23:53:45.615Z,8.00
2023-03-23T23:56:12.831Z,6.25
2023-03-23T23:58:39.166Z,7.00
